createdAt,value
2018-09-19T00:01:31.383Z,17.50
2018-09-19T00:04:55.889Z,17.40
2018-09-19T00:08:20.302Z,17.40
2018-09-19T00:11:44.718Z,17.40
2018-09-19T00:15:09.175Z,17.40
2018-09-19T00:18:33.621Z,17.40
2018-09-19T00:21:58.044Z,17.30
2018-09-19T00:25:22.476Z,17.30
2018-09-19T00:28:46.897Z,17.20
2018-09-19T00:32:11.423Z,17.20
2018-09-19T00:35:35.952Z,17.10
2018-09-19T00:39:00.430Z,17.00
2018-09-19T00:42:24.889Z,16.90
2018-09-19T00:45:49.314Z,16.80
2018-09-19T00:49:13.721Z,16.90
2018-09-19T00:52:38.187Z,16.80
2018-09-19T00:56:02.657Z,16.80
2018-09-19T00:59:27.093Z,16.80
2018-09-19T01:02:51.543Z,16.70
2018-09-19T01:06:16.001Z,16.70
2018-09-19T01:09:40.417Z,16.60
2018-09-19T01:13:04.807Z,16.60
2018-09-19T01:16:29.204Z,16.50
2018-09-19T01:19:53.669Z,16.50
2018-09-19T01:23:18.120Z,16.40
2018-09-19T01:26:42.534Z,16.50
2018-09-19T01:30:07.561Z,16.40
2018-09-19T01:33:31.956Z,16.40
2018-09-19T01:36:56.406Z,16.30
2018-09-19T01:40:20.842Z,16.30
2018-09-19T01:43:45.286Z,16.20
2018-09-19T01:47:09.703Z,16.30
2018-09-19T01:50:34.124Z,16.30
2018-09-19T01:53:58.547Z,16.20
2018-09-19T01:57:23.035Z,16.10
2018-09-19T02:00:47.465Z,16.10
2018-09-19T02:04:11.910Z,16.10
2018-09-19T02:07:36.551Z,16.10
2018-09-19T02:11:00.949Z,16.10
2018-09-19T02:14:25.382Z,16.20
2018-09-19T02:17:49.833Z,16.20
2018-09-19T02:21:14.267Z,16.20
2018-09-19T02:24:38.735Z,16.10
2018-09-19T02:28:03.505Z,16.10
2018-09-19T02:31:28.211Z,16.10
2018-09-19T02:34:52.668Z,16.10
2018-09-19T02:38:17.107Z,16.10
2018-09-19T02:41:41.506Z,16.00
2018-09-19T02:45:06.023Z,15.90
2018-09-19T02:48:30.457Z,15.90
2018-09-19T02:51:57.947Z,15.90
2018-09-19T02:55:22.552Z,15.80
2018-09-19T02:58:47.062Z,15.80
2018-09-19T03:02:11.445Z,15.80
2018-09-19T03:05:35.846Z,15.70
2018-09-19T03:09:00.278Z,15.80
2018-09-19T03:12:24.764Z,15.90
2018-09-19T03:15:49.170Z,15.80
2018-09-19T03:19:13.611Z,15.80
2018-09-19T03:22:38.095Z,15.80
2018-09-19T03:26:02.515Z,15.70
2018-09-19T03:29:27.150Z,15.80
2018-09-19T03:32:51.606Z,15.90
2018-09-19T03:36:16.032Z,16.00
2018-09-19T03:39:40.452Z,16.00
2018-09-19T03:43:04.888Z,16.00
2018-09-19T03:46:29.313Z,16.10
2018-09-19T03:49:53.772Z,16.10
2018-09-19T03:53:18.192Z,16.20
2018-09-19T03:56:42.626Z,16.20
2018-09-19T04:00:07.156Z,16.20
2018-09-19T04:03:31.590Z,16.20
2018-09-19T04:06:56.005Z,16.20
2018-09-19T04:10:20.500Z,16.20
2018-09-19T04:13:44.906Z,16.30
2018-09-19T04:17:09.345Z,16.30
2018-09-19T04:20:33.768Z,16.30
2018-09-19T04:23:58.227Z,16.20
2018-09-19T04:27:22.641Z,16.10
2018-09-19T04:30:47.077Z,16.10
2018-09-19T04:34:11.469Z,16.00
2018-09-19T04:37:35.951Z,15.90
2018-09-19T04:41:00.386Z,15.90
2018-09-19T04:44:24.993Z,15.80
2018-09-19T04:47:49.581Z,15.70
2018-09-19T04:51:14.016Z,15.60
2018-09-19T04:54:38.437Z,15.60
2018-09-19T04:58:02.848Z,15.60
2018-09-19T05:01:27.301Z,15.60
2018-09-19T05:04:51.749Z,15.50
2018-09-19T05:08:16.276Z,15.60
2018-09-19T05:11:40.856Z,15.60
2018-09-19T05:15:05.310Z,15.70
2018-09-19T05:18:29.838Z,15.60
2018-09-19T05:21:54.307Z,15.60
2018-09-19T05:25:18.767Z,15.70
2018-09-19T05:28:43.192Z,15.60
2018-09-19T05:32:07.661Z,15.60
2018-09-19T05:35:32.095Z,15.70
2018-09-19T05:38:56.562Z,15.80
2018-09-19T05:42:21.006Z,15.90
2018-09-19T05:45:45.458Z,16.00
2018-09-19T05:49:09.889Z,16.10
2018-09-19T05:52:34.316Z,16.20
2018-09-19T05:55:58.831Z,16.30
2018-09-19T05:59:23.252Z,16.40
2018-09-19T06:02:47.669Z,16.50
2018-09-19T06:06:12.116Z,16.60
2018-09-19T06:09:36.531Z,16.80
2018-09-19T06:13:01.003Z,16.90
2018-09-19T06:16:25.384Z,17.00
2018-09-19T06:19:50.268Z,17.10
2018-09-19T06:23:14.686Z,17.20
2018-09-19T06:26:39.123Z,17.30
2018-09-19T06:30:03.595Z,17.30
2018-09-19T06:33:28.043Z,17.30
2018-09-19T06:36:52.504Z,17.40
2018-09-19T06:40:16.945Z,17.50
2018-09-19T06:43:41.358Z,17.60
2018-09-19T06:47:05.916Z,17.70
2018-09-19T06:50:30.327Z,17.80
2018-09-19T06:53:54.792Z,17.90
2018-09-19T06:57:19.257Z,18.00
2018-09-19T07:00:43.691Z,18.10
2018-09-19T07:04:08.196Z,18.20
2018-09-19T07:07:32.660Z,18.30
2018-09-19T07:10:57.111Z,18.40
2018-09-19T07:14:21.592Z,18.60
2018-09-19T07:17:46.023Z,18.70
2018-09-19T07:21:10.554Z,18.80
2018-09-19T07:24:34.958Z,18.80
2018-09-19T07:27:59.482Z,18.90
2018-09-19T07:31:23.909Z,19.00
2018-09-19T07:34:48.401Z,19.10
2018-09-19T07:38:12.796Z,19.20
2018-09-19T07:41:37.194Z,19.30
2018-09-19T07:45:01.651Z,19.40
2018-09-19T07:48:26.079Z,19.60
2018-09-19T07:51:50.555Z,19.70
2018-09-19T07:55:15.082Z,19.90
2018-09-19T07:58:39.529Z,19.90
2018-09-19T08:02:03.954Z,20.00
2018-09-19T08:05:28.394Z,20.10
2018-09-19T08:08:52.834Z,20.30
2018-09-19T08:12:17.201Z,20.40
2018-09-19T08:15:41.625Z,20.50
2018-09-19T08:19:06.028Z,20.60
2018-09-19T08:22:30.550Z,20.70
2018-09-19T08:25:54.886Z,20.90
2018-09-19T08:29:19.317Z,21.10
2018-09-19T08:32:43.778Z,21.30
2018-09-19T08:36:08.306Z,21.40
2018-09-19T08:39:32.778Z,21.40
2018-09-19T08:42:57.242Z,21.50
2018-09-19T08:46:21.712Z,21.70
2018-09-19T08:49:46.185Z,21.80
2018-09-19T08:53:13.232Z,21.90
2018-09-19T08:56:37.635Z,22.00
2018-09-19T09:00:02.133Z,22.00
2018-09-19T09:03:26.599Z,22.20
2018-09-19T09:06:51.059Z,22.30
2018-09-19T09:10:18.466Z,22.60
2018-09-19T09:13:42.944Z,22.80
2018-09-19T09:17:07.322Z,23.10
2018-09-19T09:20:31.789Z,23.10
2018-09-19T09:23:56.224Z,23.20
2018-09-19T09:27:20.764Z,23.40
2018-09-19T09:30:45.138Z,23.60
2018-09-19T09:34:09.675Z,23.90
2018-09-19T09:37:34.326Z,24.00
2018-09-19T09:40:58.769Z,24.40
2018-09-19T09:44:23.294Z,24.70
2018-09-19T09:47:47.723Z,25.00
2018-09-19T09:51:12.140Z,25.30
2018-09-19T09:54:36.766Z,25.80
2018-09-19T09:58:01.322Z,26.20
2018-09-19T10:01:25.791Z,26.30
2018-09-19T10:04:50.240Z,26.60
2018-09-19T10:08:14.693Z,26.60
2018-09-19T10:11:39.126Z,26.30
2018-09-19T10:15:03.527Z,26.10
2018-09-19T10:18:28.012Z,26.00
2018-09-19T10:21:52.428Z,26.10
2018-09-19T10:25:16.919Z,26.10
2018-09-19T10:28:41.367Z,26.30
2018-09-19T10:32:05.893Z,26.40
2018-09-19T10:35:30.325Z,26.30
2018-09-19T10:38:54.798Z,26.30
2018-09-19T10:42:19.227Z,26.40
2018-09-19T10:45:43.683Z,26.20
2018-09-19T10:49:08.184Z,26.10
2018-09-19T10:52:32.594Z,26.40
2018-09-19T10:55:57.106Z,26.30
2018-09-19T10:59:21.565Z,26.30
2018-09-19T11:02:46.040Z,26.20
2018-09-19T11:06:10.497Z,26.10
2018-09-19T11:09:34.925Z,26.00
2018-09-19T11:12:59.344Z,25.70
2018-09-19T11:16:23.755Z,26.50
2018-09-19T11:19:48.331Z,27.50
2018-09-19T11:23:12.785Z,28.20
2018-09-19T11:26:37.207Z,28.60
2018-09-19T11:30:01.666Z,28.70
2018-09-19T11:33:26.106Z,29.60
2018-09-19T11:36:50.528Z,30.40
2018-09-19T11:40:14.967Z,30.80
2018-09-19T11:43:39.483Z,30.40
2018-09-19T11:47:03.959Z,30.70
2018-09-19T11:50:28.446Z,31.00
2018-09-19T11:53:52.889Z,31.30
2018-09-19T11:57:17.566Z,31.30
2018-09-19T12:00:41.980Z,31.30
2018-09-19T12:04:06.482Z,31.50
2018-09-19T12:07:31.318Z,31.20
2018-09-19T12:10:55.751Z,31.30
2018-09-19T12:14:20.207Z,31.60
2018-09-19T12:17:44.680Z,32.30
2018-09-19T12:21:09.120Z,32.60
2018-09-19T12:24:33.528Z,32.70
2018-09-19T12:27:58.179Z,33.00
2018-09-19T12:31:22.621Z,33.00
2018-09-19T12:34:47.075Z,32.50
2018-09-19T12:38:11.923Z,32.10
2018-09-19T12:41:36.398Z,32.30
2018-09-19T12:45:00.800Z,31.70
2018-09-19T12:48:25.199Z,31.80
2018-09-19T12:51:49.630Z,32.50
2018-09-19T12:55:14.110Z,33.80
2018-09-19T12:58:38.973Z,33.10
2018-09-19T13:02:03.386Z,31.80
2018-09-19T13:05:27.829Z,32.30
2018-09-19T13:08:52.282Z,32.80
2018-09-19T13:12:16.940Z,33.00
2018-09-19T13:15:41.343Z,33.60
2018-09-19T13:19:05.777Z,33.70
2018-09-19T13:22:30.224Z,34.50
2018-09-19T13:25:54.633Z,33.70
2018-09-19T13:29:19.073Z,34.20
2018-09-19T13:32:43.496Z,35.20
2018-09-19T13:36:07.903Z,35.60
2018-09-19T13:39:32.337Z,34.90
2018-09-19T13:42:56.802Z,34.40
2018-09-19T13:46:21.308Z,35.00
2018-09-19T13:49:52.767Z,35.60
2018-09-19T13:53:21.438Z,36.10
2018-09-19T13:56:45.853Z,36.40
2018-09-19T14:00:10.299Z,36.40
2018-09-19T14:03:34.729Z,35.90
2018-09-19T14:06:59.115Z,35.60
2018-09-19T14:10:23.592Z,35.50
2018-09-19T14:13:48.008Z,35.70
2018-09-19T14:17:12.399Z,35.80
2018-09-19T14:20:37.125Z,36.00
2018-09-19T14:24:01.600Z,36.80
2018-09-19T14:27:26.013Z,37.10
2018-09-19T14:30:50.422Z,37.00
2018-09-19T14:34:14.850Z,36.30
2018-09-19T14:37:39.287Z,36.60
2018-09-19T14:41:03.759Z,36.80
2018-09-19T14:44:28.188Z,37.00
2018-09-19T14:47:52.708Z,36.90
2018-09-19T14:51:17.123Z,36.40
2018-09-19T14:54:41.572Z,37.20
2018-09-19T14:58:06.025Z,37.90
2018-09-19T15:01:30.417Z,38.90
2018-09-19T15:04:55.020Z,37.90
2018-09-19T15:08:19.465Z,37.40
2018-09-19T15:11:43.901Z,37.20
2018-09-19T15:15:08.318Z,38.00
2018-09-19T15:18:32.752Z,38.50
2018-09-19T15:21:57.317Z,38.00
2018-09-19T15:25:21.748Z,36.20
2018-09-19T15:28:46.230Z,36.50
2018-09-19T15:32:10.737Z,36.30
2018-09-19T15:35:35.232Z,34.90
2018-09-19T15:38:59.679Z,35.40
2018-09-19T15:42:24.165Z,35.60
2018-09-19T15:45:48.676Z,34.90
2018-09-19T15:49:13.115Z,35.20
2018-09-19T15:52:37.525Z,36.40
2018-09-19T15:56:03.393Z,37.10
2018-09-19T15:59:27.844Z,37.60
2018-09-19T16:02:52.285Z,37.60
2018-09-19T16:06:16.731Z,37.10
2018-09-19T16:09:41.192Z,37.60
2018-09-19T16:13:27.190Z,37.20
2018-09-19T16:16:51.652Z,36.90
2018-09-19T16:20:16.175Z,36.90
2018-09-19T16:23:40.598Z,36.70
2018-09-19T16:27:05.053Z,34.70
2018-09-19T16:30:29.514Z,33.00
2018-09-19T16:33:54.040Z,33.00
2018-09-19T16:37:18.461Z,32.60
2018-09-19T16:40:42.902Z,32.40
2018-09-19T16:44:07.582Z,32.00
2018-09-19T16:47:32.079Z,30.90
2018-09-19T16:50:56.497Z,29.70
2018-09-19T16:54:20.940Z,29.10
2018-09-19T16:57:45.373Z,28.30
2018-09-19T17:01:09.864Z,27.90
2018-09-19T17:04:34.357Z,27.60
2018-09-19T17:07:58.922Z,27.20
2018-09-19T17:11:23.401Z,26.90
2018-09-19T17:14:47.803Z,26.70
2018-09-19T17:18:12.233Z,26.60
2018-09-19T17:23:12.525Z,26.40
2018-09-19T17:26:36.985Z,26.20
2018-09-19T17:30:01.427Z,25.90
2018-09-19T17:33:26.104Z,25.70
2018-09-19T17:36:50.637Z,25.50
2018-09-19T17:40:15.082Z,25.30
2018-09-19T17:43:39.472Z,25.30
2018-09-19T17:47:03.978Z,25.20
2018-09-19T17:50:28.501Z,25.00
2018-09-19T17:53:52.955Z,24.70
2018-09-19T17:57:17.422Z,24.60
2018-09-19T18:00:41.857Z,24.40
2018-09-19T18:04:06.390Z,24.40
2018-09-19T18:07:30.797Z,24.20
2018-09-19T18:10:55.261Z,24.20
2018-09-19T18:14:19.762Z,24.10
2018-09-19T18:17:44.265Z,24.10
2018-09-19T18:21:08.798Z,23.90
2018-09-19T18:24:33.256Z,23.90
2018-09-19T18:27:57.675Z,23.80
2018-09-19T18:31:22.119Z,23.70
2018-09-19T18:34:46.593Z,23.70
2018-09-19T18:38:11.147Z,23.60
2018-09-19T18:41:36.078Z,23.50
2018-09-19T18:45:00.521Z,23.40
2018-09-19T18:48:25.243Z,23.30
2018-09-19T18:51:49.732Z,23.20
2018-09-19T18:55:14.225Z,23.10
2018-09-19T18:58:38.816Z,23.00
2018-09-19T19:02:03.290Z,22.80
2018-09-19T19:05:27.745Z,22.80
2018-09-19T19:08:52.205Z,22.60
2018-09-19T19:12:17.966Z,22.50
2018-09-19T19:15:42.366Z,22.40
2018-09-19T19:19:07.820Z,22.30
2018-09-19T19:22:32.348Z,22.10
2018-09-19T19:25:58.227Z,21.90
2018-09-19T19:29:23.301Z,21.80
2018-09-19T19:32:48.862Z,21.70
2018-09-19T19:36:13.709Z,21.40
2018-09-19T19:39:38.381Z,21.30
2018-09-19T19:43:03.975Z,21.20
2018-09-19T19:46:29.767Z,21.10
2018-09-19T19:49:55.042Z,21.00
2018-09-19T19:53:19.496Z,21.00
2018-09-19T19:56:51.128Z,20.90
2018-09-19T20:00:15.587Z,20.80
2018-09-19T20:03:40.207Z,20.70
2018-09-19T20:07:05.337Z,20.60
2018-09-19T20:10:34.283Z,20.40
2018-09-19T20:14:01.450Z,20.30
2018-09-19T20:17:25.991Z,20.30
2018-09-19T20:20:50.454Z,20.30
2018-09-19T20:24:14.932Z,20.40
2018-09-19T20:27:39.539Z,20.40
2018-09-19T20:31:04.142Z,20.40
2018-09-19T20:34:28.691Z,20.50
2018-09-19T20:37:53.203Z,20.50
2018-09-19T20:41:17.688Z,20.60
2018-09-19T20:44:42.187Z,20.60
2018-09-19T20:48:06.862Z,20.70
2018-09-19T20:51:31.346Z,20.70
2018-09-19T20:54:55.836Z,20.80
2018-09-19T20:58:20.415Z,20.80
2018-09-19T21:01:44.873Z,20.80
2018-09-19T21:05:09.419Z,20.80
2018-09-19T21:08:33.845Z,20.90
2018-09-19T21:11:58.328Z,20.80
2018-09-19T21:15:23.453Z,20.80
2018-09-19T21:18:47.954Z,20.80
2018-09-19T21:22:12.637Z,20.80
2018-09-19T21:25:36.943Z,20.80
2018-09-19T21:29:01.419Z,20.70
2018-09-19T21:32:26.019Z,20.70
2018-09-19T21:35:50.449Z,20.70
2018-09-19T21:39:14.864Z,20.60
2018-09-19T21:42:39.291Z,20.50
2018-09-19T21:46:03.713Z,20.30
2018-09-19T21:49:28.147Z,20.20
2018-09-19T21:52:52.575Z,20.10
2018-09-19T21:56:16.995Z,19.90
2018-09-19T21:59:41.444Z,19.90
2018-09-19T22:03:06.078Z,19.70
2018-09-19T22:06:30.488Z,19.50
2018-09-19T22:10:01.676Z,19.30
2018-09-19T22:13:26.113Z,19.20
2018-09-19T22:16:50.519Z,19.10
2018-09-19T22:20:14.973Z,19.10
2018-09-19T22:23:39.386Z,19.10
2018-09-19T22:27:03.827Z,19.10
2018-09-19T22:30:28.277Z,19.10
2018-09-19T22:33:52.702Z,19.00
2018-09-19T22:37:17.118Z,19.00
2018-09-19T22:40:41.539Z,19.00
2018-09-19T22:44:06.049Z,19.00
2018-09-19T22:47:30.489Z,19.00
2018-09-19T22:50:54.915Z,19.00
2018-09-19T22:54:19.339Z,19.00
2018-09-19T22:57:43.741Z,19.00
2018-09-19T23:01:08.161Z,18.90
2018-09-19T23:04:32.609Z,18.90
2018-09-19T23:07:57.035Z,18.90
2018-09-19T23:11:21.449Z,18.90
2018-09-19T23:14:45.918Z,18.80
2018-09-19T23:18:10.357Z,18.80
2018-09-19T23:21:34.800Z,18.80
2018-09-19T23:24:59.180Z,18.80
2018-09-19T23:28:23.616Z,18.70
2018-09-19T23:31:48.095Z,18.70
2018-09-19T23:35:12.526Z,18.60
2018-09-19T23:38:36.983Z,18.60
2018-09-19T23:42:02.351Z,18.50
2018-09-19T23:45:26.772Z,18.40
2018-09-19T23:48:51.177Z,18.40
2018-09-19T23:52:15.626Z,18.40
2018-09-19T23:55:40.065Z,18.40
2018-09-19T23:59:04.523Z,18.30
